Pagina principale
METAR-TAF:

METAR-TAF

Aeroporti :

Aeroporto di Atene-Eleftherios Venizelos

Atene, Grecia

latitudine: 37-56N, longitudine: 023-56E, altezza: 94 m

Osservazione

Il bollettino è stato emesso 24 minuti fa, alle 20:50 UTC
Vento 2 kt da direzioni variabili
Temperature 20°C
Umidità 73%
Pressione 1014 hPa
Visibilità 10 km o più
Poco nuvoloso ad un'altezza di 3000 ft

METAR: LGAV 202050Z VRB02KT 9999 FEW030 20/15 Q1014 NOSIG

Ora: 00:14 (21:14 UTC)

Previsione

Il bollettino è stato emesso 56 minuti fa, alle 20:18 UTC
Previsione valida dal 20 alle 20 UTC al 21 alle 18 UTC
Vento 10 kt da nord/nord-est
Visibilità 10 km o più
Poco nuvoloso ad un'altezza di 3000 ft
Temporaneamente
dal 21 alle 03 UTC al 21 alle 18 UTC
Vento 15 kt da nord/nord-est con raffiche fino a 25 kt

TAF: LGAV 202018Z 2020/2118 03010KT 9999 FEW030 TEMPO 2103/2118 03015G25KT

Osservazioni e previsioni meteorologiche di più di 4000 aeroporti (messaggi METAR e TAF).

Le stazioni disponibili sono rappresentate dai dischi gialli e rossi sulla carta.

Puntare il mouse per vedere il nome della stazione.

Clicca sopra per visualizzare le osservazioni e previsioni meteorologiche.

Per cambiare la mappa : fare clic sui pulsanti verdi con una croce nera per ingrandire, il pulsante verde con un trattino per diminuire, o sulla freccia verde per le mappe adiacenti.


METAR-TAF: